Terminal Aerodrome Forecast
Issued by NWS

Home | Current Version | Previous Version | Text Only | Print | Product List | Glossary On
Versions: 1 2 3 4 5 6 7 8 9 10 11 12 13 14 15 16 17 18 19 20 21 22 23
000
FTUS42 KTAE 131100
TAFECP
TAF
KECP 131137Z 1312/1412 07003KT 6SM BR FEW011 SCT020
     FM131300 18007KT P6SM SCT035
      TEMPO 1318/1322 5SM TSRA SCT025CB BKN035
     FM140600 00000KT P6SM SCT005=

USA.gov is the U.S. government's official web portal to all federal, state and local government web resources and services.